sensor_id;sensor_type;location;lat;lon;timestamp;P1;durP1;ratioP1;P2;durP2;ratioP2
29774;SDS011;16676;51.202;6.774;2023-03-23T00:03:38;6.97;;;2.63;;
29774;SDS011;16676;51.202;6.774;2023-03-23T00:07:42;7.15;;;2.65;;
29774;SDS011;16676;51.202;6.774;2023-03-23T00:11:45;3.83;;;2.42;;
29774;SDS011;16676;51.202;6.774;2023-03-23T00:15:48;6.57;;;2.50;;
29774;SDS011;16676;51.202;6.774;2023-03-23T00:19:52;5.25;;;2.55;;
29774;SDS011;16676;51.202;6.774;2023-03-23T00:23:55;3.35;;;2.35;;
29774;SDS011;16676;51.202;6.774;2023-03-23T00:27:57;4.80;;;2.42;;
29774;SDS011;16676;51.202;6.774;2023-03-23T00:31:59;5.32;;;2.58;;
29774;SDS011;16676;51.202;6.774;2023-03-23T00:36:02;4.88;;;2.50;;
29774;SDS011;16676;51.202;6.774;2023-03-23T00:40:06;6.13;;;2.53;;
29774;SDS011;16676;51.202;6.774;2023-03-23T00:44:10;3.60;;;2.20;;
29774;SDS011;16676;51.202;6.774;2023-03-23T00:48:17;4.67;;;2.70;;
29774;SDS011;16676;51.202;6.774;2023-03-23T00:52:19;4.00;;;2.05;;
29774;SDS011;16676;51.202;6.774;2023-03-23T00:56:23;4.63;;;2.42;;
29774;SDS011;16676;51.202;6.774;2023-03-23T01:00:26;3.75;;;2.08;;
29774;SDS011;16676;51.202;6.774;2023-03-23T01:04:28;5.43;;;2.30;;
29774;SDS011;16676;51.202;6.774;2023-03-23T01:08:31;5.82;;;2.17;;
29774;SDS011;16676;51.202;6.774;2023-03-23T01:12:34;5.93;;;2.47;;
29774;SDS011;16676;51.202;6.774;2023-03-23T01:16:36;3.90;;;2.17;;
29774;SDS011;16676;51.202;6.774;2023-03-23T01:20:38;4.32;;;2.40;;
29774;SDS011;16676;51.202;6.774;2023-03-23T01:24:42;4.03;;;2.20;;
29774;SDS011;16676;51.202;6.774;2023-03-23T01:28:46;3.75;;;2.22;;
29774;SDS011;16676;51.202;6.774;2023-03-23T01:32:48;4.03;;;2.05;;
29774;SDS011;16676;51.202;6.774;2023-03-23T01:36:50;3.65;;;2.10;;
29774;SDS011;16676;51.202;6.774;2023-03-23T01:40:52;2.97;;;1.80;;
29774;SDS011;16676;51.202;6.774;2023-03-23T01:49:32;5.57;;;1.90;;
29774;SDS011;16676;51.202;6.774;2023-03-23T01:53:37;4.10;;;2.35;;
29774;SDS011;16676;51.202;6.774;2023-03-23T01:57:42;3.17;;;1.98;;
29774;SDS011;16676;51.202;6.774;2023-03-23T02:01:45;2.97;;;1.63;;
29774;SDS011;16676;51.202;6.774;2023-03-23T02:05:47;3.60;;;2.10;;
29774;SDS011;16676;51.202;6.774;2023-03-23T02:09:50;3.15;;;1.75;;
29774;SDS011;16676;51.202;6.774;2023-03-23T02:13:52;3.70;;;1.67;;
29774;SDS011;16676;51.202;6.774;2023-03-23T02:17:59;3.38;;;1.75;;
29774;SDS011;16676;51.202;6.774;2023-03-23T02:22:16;2.47;;;1.50;;
29774;SDS011;16676;51.202;6.774;2023-03-23T02:26:33;2.42;;;1.67;;
29774;SDS011;16676;51.202;6.774;2023-03-23T02:30:49;3.28;;;1.63;;
29774;SDS011;16676;51.202;6.774;2023-03-23T02:35:16;4.20;;;1.67;;
29774;SDS011;16676;51.202;6.774;2023-03-23T02:39:21;3.28;;;1.77;;
29774;SDS011;16676;51.202;6.774;2023-03-23T02:43:27;3.30;;;1.63;;
29774;SDS011;16676;51.202;6.774;2023-03-23T02:47:32;2.88;;;1.77;;
29774;SDS011;16676;51.202;6.774;2023-03-23T02:51:38;3.53;;;1.80;;
29774;SDS011;16676;51.202;6.774;2023-03-23T02:55:41;2.10;;;1.45;;
29774;SDS011;16676;51.202;6.774;2023-03-23T02:59:45;4.38;;;1.63;;
29774;SDS011;16676;51.202;6.774;2023-03-23T03:03:47;4.05;;;1.65;;
29774;SDS011;16676;51.202;6.774;2023-03-23T03:07:55;3.17;;;1.80;;
29774;SDS011;16676;51.202;6.774;2023-03-23T03:12:04;4.78;;;1.48;;
29774;SDS011;16676;51.202;6.774;2023-03-23T03:16:14;3.50;;;1.60;;
29774;SDS011;16676;51.202;6.774;2023-03-23T03:20:22;3.33;;;1.90;;
29774;SDS011;16676;51.202;6.774;2023-03-23T03:24:28;2.83;;;1.42;;
29774;SDS011;16676;51.202;6.774;2023-03-23T03:28:31;3.05;;;1.45;;
29774;SDS011;16676;51.202;6.774;2023-03-23T03:32:34;3.88;;;1.67;;
29774;SDS011;16676;51.202;6.774;2023-03-23T03:36:39;3.28;;;1.58;;
29774;SDS011;16676;51.202;6.774;2023-03-23T03:40:44;3.13;;;1.50;;
29774;SDS011;16676;51.202;6.774;2023-03-23T03:44:46;2.60;;;1.65;;
29774;SDS011;16676;51.202;6.774;2023-03-23T03:48:48;2.35;;;1.45;;
29774;SDS011;16676;51.202;6.774;2023-03-23T03:52:51;3.05;;;1.63;;
29774;SDS011;16676;51.202;6.774;2023-03-23T03:56:55;2.10;;;1.30;;
29774;SDS011;16676;51.202;6.774;2023-03-23T04:00:58;3.22;;;1.27;;
29774;SDS011;16676;51.202;6.774;2023-03-23T04:05:00;1.80;;;1.50;;
29774;SDS011;16676;51.202;6.774;2023-03-23T04:09:04;1.88;;;1.27;;
29774;SDS011;16676;51.202;6.774;2023-03-23T04:13:08;4.03;;;1.20;;
29774;SDS011;16676;51.202;6.774;2023-03-23T04:17:10;1.80;;;1.42;;
29774;SDS011;16676;51.202;6.774;2023-03-23T04:21:14;2.15;;;1.50;;
29774;SDS011;16676;51.202;6.774;2023-03-23T04:25:18;1.80;;;1.50;;
29774;SDS011;16676;51.202;6.774;2023-03-23T04:29:22;4.35;;;1.30;;
29774;SDS011;16676;51.202;6.774;2023-03-23T04:33:25;1.77;;;1.00;;
29774;SDS011;16676;51.202;6.774;2023-03-23T04:37:28;2.00;;;1.50;;
29774;SDS011;16676;51.202;6.774;2023-03-23T04:41:30;2.78;;;1.60;;
29774;SDS011;16676;51.202;6.774;2023-03-23T04:45:34;2.63;;;1.50;;
29774;SDS011;16676;51.202;6.774;2023-03-23T04:49:41;2.17;;;1.05;;
29774;SDS011;16676;51.202;6.774;2023-03-23T04:53:43;1.73;;;1.00;;
29774;SDS011;16676;51.202;6.774;2023-03-23T04:57:45;2.08;;;1.35;;
29774;SDS011;16676;51.202;6.774;2023-03-23T05:01:48;1.83;;;1.25;;
29774;SDS011;16676;51.202;6.774;2023-03-23T05:05:50;1.65;;;1.23;;
29774;SDS011;16676;51.202;6.774;2023-03-23T05:09:53;1.65;;;1.20;;
29774;SDS011;16676;51.202;6.774;2023-03-23T05:13:55;2.03;;;1.10;;
29774;SDS011;16676;51.202;6.774;2023-03-23T05:17:58;1.45;;;0.93;;
29774;SDS011;16676;51.202;6.774;2023-03-23T05:22:01;1.85;;;1.20;;
29774;SDS011;16676;51.202;6.774;2023-03-23T05:26:03;2.35;;;1.30;;
29774;SDS011;16676;51.202;6.774;2023-03-23T05:30:07;1.50;;;1.23;;
29774;SDS011;16676;51.202;6.774;2023-03-23T05:34:10;2.75;;;1.25;;
29774;SDS011;16676;51.202;6.774;2023-03-23T05:38:13;3.38;;;1.23;;
29774;SDS011;16676;51.202;6.774;2023-03-23T05:42:16;2.83;;;1.75;;
29774;SDS011;16676;51.202;6.774;2023-03-23T05:46:18;2.35;;;1.27;;
29774;SDS011;16676;51.202;6.774;2023-03-23T05:50:21;2.65;;;1.52;;
29774;SDS011;16676;51.202;6.774;2023-03-23T05:54:23;2.70;;;1.17;;
29774;SDS011;16676;51.202;6.774;2023-03-23T05:58:25;2.50;;;1.35;;
29774;SDS011;16676;51.202;6.774;2023-03-23T06:02:27;1.75;;;1.10;;
29774;SDS011;16676;51.202;6.774;2023-03-23T06:06:31;1.35;;;1.05;;
29774;SDS011;16676;51.202;6.774;2023-03-23T06:10:33;1.30;;;1.00;;
29774;SDS011;16676;51.202;6.774;2023-03-23T06:14:36;2.22;;;1.10;;
29774;SDS011;16676;51.202;6.774;2023-03-23T06:18:38;3.00;;;1.10;;
29774;SDS011;16676;51.202;6.774;2023-03-23T06:22:42;3.67;;;1.75;;
29774;SDS011;16676;51.202;6.774;2023-03-23T06:26:44;4.50;;;1.80;;
29774;SDS011;16676;51.202;6.774;2023-03-23T06:30:46;6.72;;;2.15;;
29774;SDS011;16676;51.202;6.774;2023-03-23T06:34:47;1.83;;;0.98;;
29774;SDS011;16676;51.202;6.774;2023-03-23T06:38:51;4.80;;;1.25;;
29774;SDS011;16676;51.202;6.774;2023-03-23T06:42:52;4.80;;;1.08;;
29774;SDS011;16676;51.202;6.774;2023-03-23T06:46:54;3.53;;;1.30;;
29774;SDS011;16676;51.202;6.774;2023-03-23T06:50:56;2.67;;;1.20;;
29774;SDS011;16676;51.202;6.774;2023-03-23T06:55:00;2.80;;;1.05;;
29774;SDS011;16676;51.202;6.774;2023-03-23T06:59:02;3.42;;;1.30;;
29774;SDS011;16676;51.202;6.774;2023-03-23T07:03:04;1.60;;;0.82;;
29774;SDS011;16676;51.202;6.774;2023-03-23T07:07:07;3.20;;;1.10;;
29774;SDS011;16676;51.202;6.774;2023-03-23T07:11:12;3.67;;;1.27;;
29774;SDS011;16676;51.202;6.774;2023-03-23T07:15:14;4.05;;;1.02;;
29774;SDS011;16676;51.202;6.774;2023-03-23T07:19:16;2.45;;;1.02;;
29774;SDS011;16676;51.202;6.774;2023-03-23T07:23:18;4.32;;;1.40;;
29774;SDS011;16676;51.202;6.774;2023-03-23T07:27:22;4.38;;;1.00;;
29774;SDS011;16676;51.202;6.774;2023-03-23T07:31:24;3.63;;;1.50;;
29774;SDS011;16676;51.202;6.774;2023-03-23T07:35:26;7.75;;;2.22;;
29774;SDS011;16676;51.202;6.774;2023-03-23T07:39:28;11.18;;;2.70;;
29774;SDS011;16676;51.202;6.774;2023-03-23T07:43:31;12.23;;;3.05;;
29774;SDS011;16676;51.202;6.774;2023-03-23T07:47:33;15.13;;;3.40;;
29774;SDS011;16676;51.202;6.774;2023-03-23T07:51:35;8.48;;;2.55;;
29774;SDS011;16676;51.202;6.774;2023-03-23T07:55:38;12.27;;;2.60;;
29774;SDS011;16676;51.202;6.774;2023-03-23T07:59:42;11.00;;;2.75;;
29774;SDS011;16676;51.202;6.774;2023-03-23T08:03:43;9.57;;;2.65;;
29774;SDS011;16676;51.202;6.774;2023-03-23T08:07:45;7.72;;;1.92;;
29774;SDS011;16676;51.202;6.774;2023-03-23T08:11:48;6.57;;;1.98;;
29774;SDS011;16676;51.202;6.774;2023-03-23T08:15:52;9.43;;;1.98;;
29774;SDS011;16676;51.202;6.774;2023-03-23T08:19:53;8.43;;;2.08;;
29774;SDS011;16676;51.202;6.774;2023-03-23T08:23:55;9.00;;;2.10;;
29774;SDS011;16676;51.202;6.774;2023-03-23T08:27:58;12.55;;;2.53;;
29774;SDS011;16676;51.202;6.774;2023-03-23T08:32:03;11.93;;;2.40;;
29774;SDS011;16676;51.202;6.774;2023-03-23T08:36:05;13.82;;;2.47;;
29774;SDS011;16676;51.202;6.774;2023-03-23T08:40:08;14.00;;;2.25;;
29774;SDS011;16676;51.202;6.774;2023-03-23T08:44:12;12.50;;;2.60;;
29774;SDS011;16676;51.202;6.774;2023-03-23T08:48:15;15.57;;;2.47;;
29774;SDS011;16676;51.202;6.774;2023-03-23T08:52:18;13.20;;;2.28;;
29774;SDS011;16676;51.202;6.774;2023-03-23T08:56:20;11.52;;;2.63;;
29774;SDS011;16676;51.202;6.774;2023-03-23T09:00:22;19.60;;;2.47;;
29774;SDS011;16676;51.202;6.774;2023-03-23T09:04:27;16.65;;;2.33;;
29774;SDS011;16676;51.202;6.774;2023-03-23T09:08:30;11.65;;;2.30;;
29774;SDS011;16676;51.202;6.774;2023-03-23T09:12:33;14.20;;;2.30;;
29774;SDS011;16676;51.202;6.774;2023-03-23T09:16:35;12.63;;;2.47;;
29774;SDS011;16676;51.202;6.774;2023-03-23T09:20:39;9.07;;;2.17;;
29774;SDS011;16676;51.202;6.774;2023-03-23T09:24:42;9.88;;;2.20;;
29774;SDS011;16676;51.202;6.774;2023-03-23T09:28:44;12.80;;;2.33;;
29774;SDS011;16676;51.202;6.774;2023-03-23T09:32:46;15.32;;;2.10;;
29774;SDS011;16676;51.202;6.774;2023-03-23T09:36:50;6.82;;;1.83;;
29774;SDS011;16676;51.202;6.774;2023-03-23T09:40:54;9.13;;;1.77;;
29774;SDS011;16676;51.202;6.774;2023-03-23T09:45:06;8.73;;;2.10;;
29774;SDS011;16676;51.202;6.774;2023-03-23T09:49:15;9.93;;;2.30;;
29774;SDS011;16676;51.202;6.774;2023-03-23T09:53:22;7.55;;;2.25;;
29774;SDS011;16676;51.202;6.774;2023-03-23T09:57:28;13.30;;;1.90;;
29774;SDS011;16676;51.202;6.774;2023-03-23T10:01:38;10.50;;;2.00;;
29774;SDS011;16676;51.202;6.774;2023-03-23T10:05:44;5.72;;;2.08;;
29774;SDS011;16676;51.202;6.774;2023-03-23T10:09:50;3.90;;;1.50;;
29774;SDS011;16676;51.202;6.774;2023-03-23T10:14:02;10.23;;;1.95;;
29774;SDS011;16676;51.202;6.774;2023-03-23T10:18:23;16.63;;;2.70;;
29774;SDS011;16676;51.202;6.774;2023-03-23T10:22:30;11.02;;;2.38;;
29774;SDS011;16676;51.202;6.774;2023-03-23T10:26:38;9.18;;;2.03;;
29774;SDS011;16676;51.202;6.774;2023-03-23T10:30:45;5.63;;;1.33;;
29774;SDS011;16676;51.202;6.774;2023-03-23T10:34:51;8.73;;;1.85;;
29774;SDS011;16676;51.202;6.774;2023-03-23T10:38:58;6.25;;;1.58;;
29774;SDS011;16676;51.202;6.774;2023-03-23T10:47:08;4.93;;;1.73;;
29774;SDS011;16676;51.202;6.774;2023-03-23T10:51:11;12.00;;;1.52;;
29774;SDS011;16676;51.202;6.774;2023-03-23T10:55:15;6.45;;;1.70;;
29774;SDS011;16676;51.202;6.774;2023-03-23T10:59:20;4.55;;;1.30;;
29774;SDS011;16676;51.202;6.774;2023-03-23T11:03:33;6.70;;;1.50;;
29774;SDS011;16676;51.202;6.774;2023-03-23T11:07:40;7.53;;;1.50;;
29774;SDS011;16676;51.202;6.774;2023-03-23T11:11:49;6.40;;;1.73;;
29774;SDS011;16676;51.202;6.774;2023-03-23T11:15:53;4.25;;;1.52;;
29774;SDS011;16676;51.202;6.774;2023-03-23T11:19:56;4.70;;;1.33;;
29774;SDS011;16676;51.202;6.774;2023-03-23T11:23:58;6.55;;;1.40;;
29774;SDS011;16676;51.202;6.774;2023-03-23T11:28:01;3.97;;;1.58;;
29774;SDS011;16676;51.202;6.774;2023-03-23T11:32:06;5.18;;;1.70;;
29774;SDS011;16676;51.202;6.774;2023-03-23T11:36:11;5.07;;;1.42;;
29774;SDS011;16676;51.202;6.774;2023-03-23T11:40:15;4.70;;;1.52;;
29774;SDS011;16676;51.202;6.774;2023-03-23T11:44:20;5.90;;;1.48;;
29774;SDS011;16676;51.202;6.774;2023-03-23T11:48:26;5.45;;;1.40;;
29774;SDS011;16676;51.202;6.774;2023-03-23T11:52:32;6.80;;;1.60;;
29774;SDS011;16676;51.202;6.774;2023-03-23T11:56:41;6.55;;;1.65;;
29774;SDS011;16676;51.202;6.774;2023-03-23T12:00:46;6.60;;;1.60;;
29774;SDS011;16676;51.202;6.774;2023-03-23T12:09:21;3.80;;;1.20;;
29774;SDS011;16676;51.202;6.774;2023-03-23T12:13:37;3.95;;;1.40;;
29774;SDS011;16676;51.202;6.774;2023-03-23T12:17:55;4.95;;;1.48;;
29774;SDS011;16676;51.202;6.774;2023-03-23T12:22:06;5.68;;;1.50;;
29774;SDS011;16676;51.202;6.774;2023-03-23T12:26:19;3.10;;;1.10;;
29774;SDS011;16676;51.202;6.774;2023-03-23T12:30:26;5.43;;;1.73;;
29774;SDS011;16676;51.202;6.774;2023-03-23T12:34:35;3.03;;;1.25;;
29774;SDS011;16676;51.202;6.774;2023-03-23T12:43:30;2.58;;;1.05;;
29774;SDS011;16676;51.202;6.774;2023-03-23T12:47:37;2.45;;;1.15;;
29774;SDS011;16676;51.202;6.774;2023-03-23T12:51:42;5.65;;;1.75;;
29774;SDS011;16676;51.202;6.774;2023-03-23T12:55:52;2.72;;;1.20;;
29774;SDS011;16676;51.202;6.774;2023-03-23T13:00:07;2.47;;;1.27;;
29774;SDS011;16676;51.202;6.774;2023-03-23T13:04:20;3.30;;;1.20;;
29774;SDS011;16676;51.202;6.774;2023-03-23T13:08:28;2.97;;;1.08;;
29774;SDS011;16676;51.202;6.774;2023-03-23T13:12:35;4.60;;;1.40;;
29774;SDS011;16676;51.202;6.774;2023-03-23T13:16:41;3.33;;;1.25;;
29774;SDS011;16676;51.202;6.774;2023-03-23T13:20:53;3.88;;;1.35;;
29774;SDS011;16676;51.202;6.774;2023-03-23T13:25:00;3.75;;;1.13;;
29774;SDS011;16676;51.202;6.774;2023-03-23T13:29:12;3.80;;;1.23;;
29774;SDS011;16676;51.202;6.774;2023-03-23T13:33:18;3.65;;;1.10;;
29774;SDS011;16676;51.202;6.774;2023-03-23T13:37:22;3.78;;;1.27;;
29774;SDS011;16676;51.202;6.774;2023-03-23T13:41:25;2.53;;;1.10;;
29774;SDS011;16676;51.202;6.774;2023-03-23T13:45:42;4.20;;;1.30;;
29774;SDS011;16676;51.202;6.774;2023-03-23T13:49:47;3.67;;;1.15;;
29774;SDS011;16676;51.202;6.774;2023-03-23T13:53:52;4.03;;;1.05;;
29774;SDS011;16676;51.202;6.774;2023-03-23T13:58:09;2.75;;;1.10;;
29774;SDS011;16676;51.202;6.774;2023-03-23T14:02:34;4.13;;;1.33;;
29774;SDS011;16676;51.202;6.774;2023-03-23T14:06:39;2.92;;;1.10;;
29774;SDS011;16676;51.202;6.774;2023-03-23T14:10:42;2.83;;;0.90;;
29774;SDS011;16676;51.202;6.774;2023-03-23T14:14:46;4.53;;;1.20;;
29774;SDS011;16676;51.202;6.774;2023-03-23T14:18:55;4.72;;;1.30;;
29774;SDS011;16676;51.202;6.774;2023-03-23T14:23:00;3.25;;;1.20;;
29774;SDS011;16676;51.202;6.774;2023-03-23T14:27:08;3.10;;;1.20;;
29774;SDS011;16676;51.202;6.774;2023-03-23T14:31:18;1.80;;;0.85;;
29774;SDS011;16676;51.202;6.774;2023-03-23T14:35:25;3.40;;;1.20;;
29774;SDS011;16676;51.202;6.774;2023-03-23T14:39:30;3.60;;;1.20;;
29774;SDS011;16676;51.202;6.774;2023-03-23T14:43:33;2.20;;;0.98;;
29774;SDS011;16676;51.202;6.774;2023-03-23T14:47:37;2.75;;;1.00;;
29774;SDS011;16676;51.202;6.774;2023-03-23T14:51:51;3.30;;;1.15;;
29774;SDS011;16676;51.202;6.774;2023-03-23T14:55:55;3.20;;;1.10;;
29774;SDS011;16676;51.202;6.774;2023-03-23T15:00:00;3.63;;;1.25;;
29774;SDS011;16676;51.202;6.774;2023-03-23T15:04:04;1.58;;;0.80;;
29774;SDS011;16676;51.202;6.774;2023-03-23T15:12:19;3.90;;;1.10;;
29774;SDS011;16676;51.202;6.774;2023-03-23T15:16:26;2.17;;;1.10;;
29774;SDS011;16676;51.202;6.774;2023-03-23T15:20:30;2.30;;;0.88;;
29774;SDS011;16676;51.202;6.774;2023-03-23T15:24:45;2.60;;;0.77;;
29774;SDS011;16676;51.202;6.774;2023-03-23T15:28:48;2.25;;;1.00;;
29774;SDS011;16676;51.202;6.774;2023-03-23T15:32:52;2.47;;;0.95;;
29774;SDS011;16676;51.202;6.774;2023-03-23T15:36:56;3.33;;;1.20;;
29774;SDS011;16676;51.202;6.774;2023-03-23T15:41:03;1.92;;;0.80;;
29774;SDS011;16676;51.202;6.774;2023-03-23T15:49:26;2.40;;;0.90;;
29774;SDS011;16676;51.202;6.774;2023-03-23T15:53:29;3.13;;;0.95;;
29774;SDS011;16676;51.202;6.774;2023-03-23T15:57:34;1.27;;;0.82;;
29774;SDS011;16676;51.202;6.774;2023-03-23T16:01:36;3.45;;;0.98;;
29774;SDS011;16676;51.202;6.774;2023-03-23T16:05:39;2.90;;;1.00;;
29774;SDS011;16676;51.202;6.774;2023-03-23T16:09:41;1.77;;;0.88;;
29774;SDS011;16676;51.202;6.774;2023-03-23T16:13:45;1.90;;;1.00;;
29774;SDS011;16676;51.202;6.774;2023-03-23T16:17:47;1.73;;;0.90;;
29774;SDS011;16676;51.202;6.774;2023-03-23T16:21:49;3.55;;;1.10;;
29774;SDS011;16676;51.202;6.774;2023-03-23T16:25:51;1.58;;;0.80;;
29774;SDS011;16676;51.202;6.774;2023-03-23T16:29:54;2.20;;;0.82;;
29774;SDS011;16676;51.202;6.774;2023-03-23T16:33:57;3.92;;;0.90;;
29774;SDS011;16676;51.202;6.774;2023-03-23T16:37:59;2.20;;;0.90;;
29774;SDS011;16676;51.202;6.774;2023-03-23T16:42:01;2.95;;;1.30;;
29774;SDS011;16676;51.202;6.774;2023-03-23T16:46:05;2.35;;;0.90;;
29774;SDS011;16676;51.202;6.774;2023-03-23T16:50:08;4.07;;;1.10;;
29774;SDS011;16676;51.202;6.774;2023-03-23T16:54:11;2.67;;;1.02;;
29774;SDS011;16676;51.202;6.774;2023-03-23T16:58:13;1.85;;;0.73;;
29774;SDS011;16676;51.202;6.774;2023-03-23T17:02:17;1.35;;;0.90;;
29774;SDS011;16676;51.202;6.774;2023-03-23T17:06:19;2.80;;;1.00;;
29774;SDS011;16676;51.202;6.774;2023-03-23T17:10:22;2.05;;;0.90;;
29774;SDS011;16676;51.202;6.774;2023-03-23T17:14:26;2.92;;;1.25;;
29774;SDS011;16676;51.202;6.774;2023-03-23T17:18:29;2.25;;;0.90;;
29774;SDS011;16676;51.202;6.774;2023-03-23T17:22:31;4.43;;;1.20;;
29774;SDS011;16676;51.202;6.774;2023-03-23T17:26:33;4.30;;;1.30;;
29774;SDS011;16676;51.202;6.774;2023-03-23T17:30:38;5.65;;;1.30;;
29774;SDS011;16676;51.202;6.774;2023-03-23T17:34:42;5.10;;;1.45;;
29774;SDS011;16676;51.202;6.774;2023-03-23T17:38:44;7.05;;;1.20;;
29774;SDS011;16676;51.202;6.774;2023-03-23T17:42:46;7.05;;;1.20;;
29774;SDS011;16676;51.202;6.774;2023-03-23T17:46:48;4.65;;;1.40;;
29774;SDS011;16676;51.202;6.774;2023-03-23T17:50:52;5.57;;;1.10;;
29774;SDS011;16676;51.202;6.774;2023-03-23T17:54:56;7.03;;;1.17;;
29774;SDS011;16676;51.202;6.774;2023-03-23T17:58:58;2.90;;;1.30;;
29774;SDS011;16676;51.202;6.774;2023-03-23T18:03:00;2.88;;;1.05;;
29774;SDS011;16676;51.202;6.774;2023-03-23T18:07:03;3.08;;;1.20;;
29774;SDS011;16676;51.202;6.774;2023-03-23T18:11:05;5.80;;;1.58;;
29774;SDS011;16676;51.202;6.774;2023-03-23T18:15:08;6.40;;;1.65;;
29774;SDS011;16676;51.202;6.774;2023-03-23T18:19:10;5.47;;;1.80;;
29774;SDS011;16676;51.202;6.774;2023-03-23T18:23:13;5.50;;;1.55;;
29774;SDS011;16676;51.202;6.774;2023-03-23T18:27:15;6.82;;;1.90;;
29774;SDS011;16676;51.202;6.774;2023-03-23T18:31:18;5.50;;;1.90;;
29774;SDS011;16676;51.202;6.774;2023-03-23T18:35:21;9.90;;;2.25;;
29774;SDS011;16676;51.202;6.774;2023-03-23T18:39:24;9.43;;;2.60;;
29774;SDS011;16676;51.202;6.774;2023-03-23T18:43:26;5.18;;;2.25;;
29774;SDS011;16676;51.202;6.774;2023-03-23T18:47:28;10.05;;;2.80;;
29774;SDS011;16676;51.202;6.774;2023-03-23T18:51:30;11.15;;;3.20;;
29774;SDS011;16676;51.202;6.774;2023-03-23T18:55:33;14.35;;;5.43;;
29774;SDS011;16676;51.202;6.774;2023-03-23T18:59:35;128.15;;;53.67;;
29774;SDS011;16676;51.202;6.774;2023-03-23T19:03:37;127.47;;;59.85;;
29774;SDS011;16676;51.202;6.774;2023-03-23T19:07:40;144.85;;;62.08;;
29774;SDS011;16676;51.202;6.774;2023-03-23T19:11:44;129.07;;;55.03;;
29774;SDS011;16676;51.202;6.774;2023-03-23T19:15:46;114.82;;;52.17;;
29774;SDS011;16676;51.202;6.774;2023-03-23T19:19:48;104.65;;;49.80;;
29774;SDS011;16676;51.202;6.774;2023-03-23T19:23:50;111.68;;;49.05;;
29774;SDS011;16676;51.202;6.774;2023-03-23T19:27:53;102.88;;;46.17;;
29774;SDS011;16676;51.202;6.774;2023-03-23T19:31:55;106.97;;;46.15;;
29774;SDS011;16676;51.202;6.774;2023-03-23T19:35:58;84.82;;;40.90;;
29774;SDS011;16676;51.202;6.774;2023-03-23T19:39:59;84.47;;;39.67;;
29774;SDS011;16676;51.202;6.774;2023-03-23T19:44:03;83.55;;;40.38;;
29774;SDS011;16676;51.202;6.774;2023-03-23T19:48:06;90.53;;;40.50;;
29774;SDS011;16676;51.202;6.774;2023-03-23T19:52:08;83.32;;;38.45;;
29774;SDS011;16676;51.202;6.774;2023-03-23T19:56:11;89.82;;;37.42;;
29774;SDS011;16676;51.202;6.774;2023-03-23T20:00:15;73.65;;;35.20;;
29774;SDS011;16676;51.202;6.774;2023-03-23T20:04:17;71.03;;;33.92;;
29774;SDS011;16676;51.202;6.774;2023-03-23T20:08:21;73.10;;;33.75;;
29774;SDS011;16676;51.202;6.774;2023-03-23T20:12:23;65.22;;;33.58;;
29774;SDS011;16676;51.202;6.774;2023-03-23T20:16:26;61.97;;;30.60;;
29774;SDS011;16676;51.202;6.774;2023-03-23T20:20:29;70.43;;;33.60;;
29774;SDS011;16676;51.202;6.774;2023-03-23T20:24:30;60.38;;;30.95;;
29774;SDS011;16676;51.202;6.774;2023-03-23T20:28:33;62.47;;;29.27;;
29774;SDS011;16676;51.202;6.774;2023-03-23T20:32:37;58.85;;;29.58;;
29774;SDS011;16676;51.202;6.774;2023-03-23T20:36:41;58.83;;;27.80;;
29774;SDS011;16676;51.202;6.774;2023-03-23T20:40:45;54.72;;;26.42;;
29774;SDS011;16676;51.202;6.774;2023-03-23T20:44:47;54.63;;;26.23;;
29774;SDS011;16676;51.202;6.774;2023-03-23T20:48:50;57.55;;;26.98;;
29774;SDS011;16676;51.202;6.774;2023-03-23T20:52:52;53.97;;;25.92;;
29774;SDS011;16676;51.202;6.774;2023-03-23T20:56:54;54.15;;;26.05;;
29774;SDS011;16676;51.202;6.774;2023-03-23T21:00:57;50.70;;;25.20;;
29774;SDS011;16676;51.202;6.774;2023-03-23T21:05:03;45.78;;;23.70;;
29774;SDS011;16676;51.202;6.774;2023-03-23T21:09:06;45.90;;;23.85;;
29774;SDS011;16676;51.202;6.774;2023-03-23T21:13:08;47.38;;;22.55;;
29774;SDS011;16676;51.202;6.774;2023-03-23T21:17:10;43.75;;;21.40;;
29774;SDS011;16676;51.202;6.774;2023-03-23T21:21:14;48.65;;;21.83;;
29774;SDS011;16676;51.202;6.774;2023-03-23T21:25:17;43.03;;;20.75;;
29774;SDS011;16676;51.202;6.774;2023-03-23T21:29:21;42.03;;;20.42;;
29774;SDS011;16676;51.202;6.774;2023-03-23T21:33:24;45.33;;;20.77;;
29774;SDS011;16676;51.202;6.774;2023-03-23T21:37:28;33.42;;;18.77;;
29774;SDS011;16676;51.202;6.774;2023-03-23T21:41:30;36.83;;;18.23;;
29774;SDS011;16676;51.202;6.774;2023-03-23T21:45:34;37.90;;;19.23;;
29774;SDS011;16676;51.202;6.774;2023-03-23T21:49:35;38.03;;;18.33;;
29774;SDS011;16676;51.202;6.774;2023-03-23T21:53:39;37.35;;;17.92;;
29774;SDS011;16676;51.202;6.774;2023-03-23T21:57:42;36.85;;;18.52;;
29774;SDS011;16676;51.202;6.774;2023-03-23T22:01:45;35.05;;;17.35;;
29774;SDS011;16676;51.202;6.774;2023-03-23T22:05:49;33.53;;;17.38;;
29774;SDS011;16676;51.202;6.774;2023-03-23T22:09:54;32.22;;;16.42;;
29774;SDS011;16676;51.202;6.774;2023-03-23T22:13:57;34.25;;;17.02;;
29774;SDS011;16676;51.202;6.774;2023-03-23T22:17:59;31.10;;;16.33;;
29774;SDS011;16676;51.202;6.774;2023-03-23T22:22:01;31.98;;;17.15;;
29774;SDS011;16676;51.202;6.774;2023-03-23T22:26:06;31.67;;;15.65;;
29774;SDS011;16676;51.202;6.774;2023-03-23T22:30:09;30.88;;;16.42;;
29774;SDS011;16676;51.202;6.774;2023-03-23T22:34:12;31.13;;;16.80;;
29774;SDS011;16676;51.202;6.774;2023-03-23T22:38:14;31.52;;;16.13;;
29774;SDS011;16676;51.202;6.774;2023-03-23T22:42:17;28.40;;;15.25;;
29774;SDS011;16676;51.202;6.774;2023-03-23T22:46:19;29.48;;;15.02;;
29774;SDS011;16676;51.202;6.774;2023-03-23T22:50:22;32.10;;;16.17;;
29774;SDS011;16676;51.202;6.774;2023-03-23T22:54:24;28.58;;;15.05;;
29774;SDS011;16676;51.202;6.774;2023-03-23T22:58:27;26.77;;;13.93;;
29774;SDS011;16676;51.202;6.774;2023-03-23T23:02:29;24.23;;;13.25;;
29774;SDS011;16676;51.202;6.774;2023-03-23T23:06:31;25.65;;;12.80;;
29774;SDS011;16676;51.202;6.774;2023-03-23T23:10:33;25.38;;;13.23;;
29774;SDS011;16676;51.202;6.774;2023-03-23T23:14:37;23.63;;;12.38;;
29774;SDS011;16676;51.202;6.774;2023-03-23T23:18:39;24.00;;;12.10;;
29774;SDS011;16676;51.202;6.774;2023-03-23T23:22:42;26.35;;;14.00;;
29774;SDS011;16676;51.202;6.774;2023-03-23T23:26:44;25.73;;;12.48;;
29774;SDS011;16676;51.202;6.774;2023-03-23T23:30:47;21.10;;;12.32;;
29774;SDS011;16676;51.202;6.774;2023-03-23T23:34:50;25.08;;;12.93;;
29774;SDS011;16676;51.202;6.774;2023-03-23T23:38:52;21.48;;;11.68;;
29774;SDS011;16676;51.202;6.774;2023-03-23T23:42:54;24.23;;;12.65;;
29774;SDS011;16676;51.202;6.774;2023-03-23T23:46:57;22.70;;;11.73;;
29774;SDS011;16676;51.202;6.774;2023-03-23T23:51:00;21.50;;;11.35;;
29774;SDS011;16676;51.202;6.774;2023-03-23T23:55:03;20.98;;;11.50;;
29774;SDS011;16676;51.202;6.774;2023-03-23T23:59:06;19.75;;;10.95;;
